WetterOnline ( https://www.wetteronline.de )

Wetter aktuell Hof

Aktuelles Wetter: Plauen (389m)

6-stündlich | Neueste Meldungen
Ortszeit Temperatur Wetter
Sa, 24.07. 2:00 14.4° C wolkig
Fr, 23.07. 20:00 23.9° C wolkenlos
Fr, 23.07. 14:00 24.9° C wolkenlos
Fr, 23.07. 8:00 13.1° C wolkig
Fr, 23.07. 2:00 13.4° C bewölkt
Do, 22.07. 20:00 21.7° C leicht bewölkt
Do, 22.07. 14:00 22.5° C leicht bewölkt
Do, 22.07. 8:00 13.4° C bedeckt
Ortszeit Temperatur Wetter
Sa, 24.07. 5:00 12.7° C leicht bewölkt
Sa, 24.07. 4:50 12.7° C leicht bewölkt
Sa, 24.07. 4:40 12.8° C fast wolkenlos
Sa, 24.07. 4:30 13.1° C fast wolkenlos
Sa, 24.07. 4:20 13.1° C wolkenlos
Sa, 24.07. 4:10 13.0° C fast wolkenlos
Sa, 24.07. 4:00 13.1° C leicht bewölkt
Sa, 24.07. 3:30 13.6° C leicht bewölkt
Sa, 24.07. 3:00 13.9° C leicht bewölkt
Sa, 24.07. 2:30 14.0° C leicht bewölkt
Sa, 24.07. 2:00 14.4° C wolkig
Ortszeit Relative Feuchte Sichtweite
Sa, 24.07. 2:00 88% 18 km
Fr, 23.07. 20:00 48% 30 km
Fr, 23.07. 14:00 46% 40 km
Fr, 23.07. 8:00 85% 14 km
Fr, 23.07. 2:00 88% 13 km
Do, 22.07. 20:00 51% 40 km
Do, 22.07. 14:00 46% 35 km
Do, 22.07. 8:00 85% 25 km
Ortszeit Relative Feuchte Sichtweite
Sa, 24.07. 5:00 92% 11 km
Sa, 24.07. 4:50 92% -
Sa, 24.07. 4:40 92% -
Sa, 24.07. 4:30 93% 11 km
Sa, 24.07. 4:20 93% -
Sa, 24.07. 4:10 93% -
Sa, 24.07. 4:00 92% 12 km
Sa, 24.07. 3:30 92% 13 km
Sa, 24.07. 3:00 91% 12 km
Sa, 24.07. 2:30 91% 12 km
Sa, 24.07. 2:00 88% 18 km
Ortszeit Niederschlagsmenge Niederschlagsart
Sa, 24.07. 2:00 0.0 l/m2 in 6 Std. -
Fr, 23.07. 20:00 0.0 l/m2 in 12 Std. -
Fr, 23.07. 14:00 0.0 l/m2 in 6 Std. -
Fr, 23.07. 8:00 0.0 l/m2 in 12 Std. -
Fr, 23.07. 2:00 0.0 l/m2 in 6 Std. -
Do, 22.07. 20:00 0.0 l/m2 in 12 Std. -
Do, 22.07. 14:00 0.0 l/m2 in 6 Std. -
Do, 22.07. 8:00 0.0 l/m2 in 12 Std. -
Ortszeit Niederschlagsmenge Niederschlagsart
Sa, 24.07. 5:00 0.0 l/m2 in 1 Std. -
Sa, 24.07. 4:50 keine Meldung -
Sa, 24.07. 4:40 keine Meldung -
Sa, 24.07. 4:30 0.0 l/m2 in 1 Std. -
Sa, 24.07. 4:20 keine Meldung -
Sa, 24.07. 4:10 keine Meldung -
Sa, 24.07. 4:00 0.0 l/m2 in 1 Std. -
Sa, 24.07. 3:30 0.0 l/m2 in 1 Std. -
Sa, 24.07. 3:00 0.0 l/m2 in 1 Std. -
Sa, 24.07. 2:30 0.0 l/m2 in 1 Std. -
Sa, 24.07. 2:00 0.0 l/m2 in 1 Std. -
Ortszeit Stärke Spitze Richtung
km/h Bft. km/h Grad Sektor
Sa, 24.07. 2:00 6 1 19 200° S
Fr, 23.07. 20:00 11 2 22 40° NO
Fr, 23.07. 14:00 7 2 14 320° NW
Fr, 23.07. 8:00 4 1 7 280° W
Fr, 23.07. 2:00 0 0 18 - -
Do, 22.07. 20:00 11 2 22 360° N
Do, 22.07. 14:00 7 2 14 300° NW
Do, 22.07. 8:00 4 1 7 250° W
Ortszeit Stärke Spitze Richtung
km/h Bft. km/h Grad Sektor
Sa, 24.07. 5:00 4 1 7 190° S
Sa, 24.07. 4:50 4 1 - 190° S
Sa, 24.07. 4:40 4 1 - 190° S
Sa, 24.07. 4:30 2 1 6 180° S
Sa, 24.07. 4:20 2 1 - 180° S
Sa, 24.07. 4:10 4 1 - 190° S
Sa, 24.07. 4:00 6 1 7 190° S
Sa, 24.07. 3:30 4 1 4 270° W
Sa, 24.07. 3:00 4 1 7 210° SW
Sa, 24.07. 2:30 4 1 7 200° S
Sa, 24.07. 2:00 6 1 9 200° S
Ortszeit Untergrenze Bedeckung Gattung
total tief tief mittel hoch
Sa, 24.07. 2:00 2100 m 5/8 5/8 - - -
Fr, 23.07. 20:00 - 0/8 0/8 - - -
Fr, 23.07. 14:00 - 0/8 0/8 - - -
Fr, 23.07. 8:00 1800 m 6/8 6/8 - - -
Fr, 23.07. 2:00 1500 m 7/8 7/8 - - -
Do, 22.07. 20:00 1800 m 3/8 3/8 - - -
Do, 22.07. 14:00 1500 m 3/8 3/8 - - -
Do, 22.07. 8:00 1500 m 8/8 8/8 - - -
Ortszeit Bedeckungsgrad in Achtel und Wolkenuntergrenze
Sa, 24.07. 5:00 3(1800m)
Sa, 24.07. 4:50 3(1800m)
Sa, 24.07. 4:40 1(1800m)
Sa, 24.07. 4:30 2(1800m)
Sa, 24.07. 4:20 keine Wolken
Sa, 24.07. 4:10 1(1800m)
Sa, 24.07. 4:00 2(1800m)
Sa, 24.07. 3:30 2(2100m)
Sa, 24.07. 3:00 2(2100m)
Sa, 24.07. 2:30 3(2100m)
Sa, 24.07. 2:00 5(2100m)
Ortszeit Luftdruck NN (hPa) Tendenz (hPa in 3 Std.)
Sa, 24.07. 2:00 1014 - 0,5
Fr, 23.07. 20:00 1013 - 0,6
Fr, 23.07. 14:00 1015 - 0,9
Fr, 23.07. 8:00 1019 - 0,1
Fr, 23.07. 2:00 1020 0,0
Do, 22.07. 20:00 1018 - 0,8
Do, 22.07. 14:00 1020 - 1,1
Do, 22.07. 8:00 1023 + 0,2
Ortszeit Luftdruck NN (hPa) Tendenz (hPa in 3 Std.)
Sa, 24.07. 5:00 1014 - 1,1
Sa, 24.07. 4:50 1014 keine Meldung
Sa, 24.07. 4:40 1014 keine Meldung
Sa, 24.07. 4:30 1014 - 1,0
Sa, 24.07. 4:20 1014 keine Meldung
Sa, 24.07. 4:10 1014 keine Meldung
Sa, 24.07. 4:00 1014 - 1,0
Sa, 24.07. 3:30 1014 - 1,0
Sa, 24.07. 3:00 1014 - 0,9
Sa, 24.07. 2:30 1014 - 0,6
Sa, 24.07. 2:00 1014 - 0,5
Ortszeit Schneehöhe (cm)
Sa, 24.07. 2:00 -
Fr, 23.07. 20:00 -
Fr, 23.07. 14:00 -
Fr, 23.07. 8:00 -
Fr, 23.07. 2:00 -
Do, 22.07. 20:00 -
Do, 22.07. 14:00 -
Do, 22.07. 8:00 -
Ortszeit Schneehöhe (cm)
Sa, 24.07. 5:00 -
Sa, 24.07. 4:50 -
Sa, 24.07. 4:40 -
Sa, 24.07. 4:30 -
Sa, 24.07. 4:20 -
Sa, 24.07. 4:10 -
Sa, 24.07. 4:00 -
Sa, 24.07. 3:30 -
Sa, 24.07. 3:00 -
Sa, 24.07. 2:30 -
Sa, 24.07. 2:00 -
Link zu dieser Seite / Seite empfehlen

Das Wetter in ...